Nathan G — WDJ6251 — position and weather

sailwx.info

Track history (hours):
 
Tides and Currents Weather Stations Pressure Air Temp Water Temp Dewpoint Dewpoint Depression Visibility Wind Speed Wind Dir Waves Ship Positions

Nathan G

Owner: New York State Marine Highway Transportation LLC, Troy, NY. More information available from US FCC via Universal Licensing System and Coast Guard Vessel Documentation Center.

Last reported at 2017-Nov-23 06:11 UTC. Time now 2017-Nov-23 11:16 UTC.
Position N 40°34' W 073°55'.

Length 18 m; draft 3 m.

MMSI: 367795910.

Date/timePositionNaut miles runAvg speedWind from/ knotsBaromVisibWave heightAir tempDewpointWater temp
2017-Nov-23 06:11N 40°34' W 073°55'6 1.5
2017-Nov-23 02:17N 40°36' W 074°02'2 7.6
2017-Nov-23 02:00N 40°38' W 074°02'1 1.9
2017-Nov-23 01:26N 40°39' W 074°04'2 4.8
2017-Nov-23 00:58N 40°39' W 074°07'0 0.0
2017-Nov-23 00:29N 40°39' W 074°07'0 0.0
2017-Nov-22 23:57N 40°39' W 074°07'1 2.3
2017-Nov-22 23:29N 40°39' W 074°05'4 7.2
2017-Nov-22 23:00N 40°40' W 074°01'0 0.0
2017-Nov-22 22:30N 40°40' W 074°01'0 0.0
2017-Nov-22 22:00N 40°40' W 074°01'0 0.0
2017-Nov-22 21:31N 40°40' W 074°01'0 0.0
2017-Nov-22 21:00N 40°40' W 074°01'2 3.8
2017-Nov-22 20:30N 40°42' W 074°01'1 2.1
2017-Nov-22 20:00N 40°41' W 074°02'2 3.8
2017-Nov-22 19:30N 40°39' W 074°02'  
2017-Nov-20 00:30N 40°36' W 074°02'2 4.8
2017-Nov-19 23:59N 40°34' W 073°60'3 4.4
2017-Nov-19 23:23N 40°34' W 073°56'2 4.3
2017-Nov-19 23:00N 40°34' W 073°54'3 4.5
2017-Nov-19 22:25N 40°35' W 073°51'7 0.5
2017-Nov-19 09:53N 40°34' W 073°59'2 6.3
2017-Nov-19 09:30N 40°35' W 074°02'4 7.2
2017-Nov-19 09:01N 40°39' W 074°02'0 1.0
2017-Nov-19 08:31N 40°40' W 074°02'1 2.2
2017-Nov-19 08:01N 40°41' W 074°01'4 7.3
2017-Nov-19 07:30N 40°43' W 073°58'5 8.7
2017-Nov-19 06:55N 40°48' W 073°55'4 8.2
2017-Nov-19 06:30N 40°48' W 073°50'1 0.1
2017-Nov-18 22:35N 40°48' W 073°49'4 6.4
2017-Nov-18 22:02N 40°48' W 073°54'0 6.8
2017-Nov-18 21:59N 40°48' W 073°54'3 7.2
2017-Nov-18 21:30N 40°46' W 073°57'3 6.4
2017-Nov-18 21:00N 40°43' W 073°59'3 5.6
2017-Nov-18 20:31N 40°41' W 074°01'1 2.6
2017-Nov-18 20:00N 40°39' W 074°02'0 0.1
2017-Nov-18 19:31N 40°39' W 074°02'0 0.0
2017-Nov-18 19:00N 40°39' W 074°02'0 0.2
2017-Nov-18 18:30N 40°39' W 074°02'0 0.5
2017-Nov-18 18:00N 40°39' W 074°02'0 0.0
2017-Nov-18 17:31N 40°39' W 074°02'0 0.0
2017-Nov-18 17:01N 40°39' W 074°02'0 0.1
2017-Nov-18 16:30N 40°40' W 074°02'0 0.1
2017-Nov-18 16:01N 40°40' W 074°02'0 0.0
2017-Nov-18 15:31N 40°40' W 074°02'0 0.0
2017-Nov-18 15:01N 40°40' W 074°02'0 0.0
2017-Nov-18 14:31N 40°40' W 074°02'0 0.0
2017-Nov-18 14:01N 40°40' W 074°02'0 0.0
2017-Nov-18 13:31N 40°40' W 074°02'0 0.0
2017-Nov-18 13:00N 40°40' W 074°02'0 0.0
2017-Nov-18 12:31N 40°40' W 074°02'0 0.0
2017-Nov-18 12:01N 40°40' W 074°02'0 0.0
2017-Nov-18 11:31N 40°40' W 074°02'0 0.0
2017-Nov-18 11:01N 40°40' W 074°02'0 0.0
2017-Nov-18 10:31N 40°40' W 074°02'0 0.0
2017-Nov-18 10:01N 40°40' W 074°02'0 0.1
2017-Nov-18 09:31N 40°40' W 074°02'0 0.1
2017-Nov-18 09:00N 40°39' W 074°02'0 0.1
2017-Nov-18 08:31N 40°39' W 074°02'0 0.0
2017-Nov-18 08:00N 40°39' W 074°02'0 0.0
2017-Nov-18 07:31N 40°39' W 074°02'0 0.0
2017-Nov-18 07:01N 40°39' W 074°02'0 0.2
2017-Nov-18 06:31N 40°39' W 074°02'2 4.8
2017-Nov-18 06:00N 40°37' W 074°03'3 6.4
2017-Nov-18 05:30N 40°34' W 074°01'4 8.0
2017-Nov-18 05:00N 40°34' W 073°55'4 0.7
2017-Nov-17 22:30N 40°35' W 073°50'0 0.0
2017-Nov-17 21:04N 40°35' W 073°50'0 0.1
2017-Nov-17 20:59N 40°35' W 073°50'0 0.0
2017-Nov-17 20:27N 40°35' W 073°50'0 0.0
2017-Nov-17 19:59N 40°35' W 073°50'0 0.0
2017-Nov-17 19:23N 40°35' W 073°50'0 0.0
2017-Nov-17 18:46N 40°35' W 073°50'0 0.0
2017-Nov-17 17:45N 40°35' W 073°50'0 0.0
2017-Nov-17 17:22N 40°35' W 073°50'0 0.0
2017-Nov-17 09:15N 40°35' W 073°50'4 1.9
2017-Nov-17 07:24N 40°34' W 073°54'2 3.1
2017-Nov-17 06:52N 40°34' W 073°56'2 5.5
2017-Nov-17 06:29N 40°34' W 073°59'3 5.9
2017-Nov-17 06:00N 40°36' W 074°02'3 6.2
2017-Nov-17 05:30N 40°39' W 074°02'3 5.7
2017-Nov-17 05:00N 40°41' W 074°00'4 7.4
2017-Nov-17 04:30N 40°45' W 073°58'4 8.6
2017-Nov-17 03:59N 40°48' W 073°54'4 7.3
2017-Nov-17 03:29N 40°48' W 073°49'0 0.0
2017-Nov-16 17:45N 40°48' W 073°50'2 8.1
2017-Nov-16 17:29N 40°48' W 073°52'3 5.5
2017-Nov-16 17:00N 40°47' W 073°56'2 4.3
2017-Nov-16 16:30N 40°45' W 073°58'3 5.6
2017-Nov-16 16:00N 40°43' W 073°59'3 6.1
2017-Nov-16 15:30N 40°40' W 074°02'3 6.1
2017-Nov-16 15:00N 40°37' W 074°03'4 7.0
2017-Nov-16 14:30N 40°34' W 074°01'0 0.0
2017-Nov-16 08:38N 40°34' W 074°00'1 6.4
2017-Nov-16 08:30N 40°35' W 074°01'4 8.5
2017-Nov-16 08:00N 40°39' W 074°02'1 1.8
2017-Nov-16 07:30N 40°40' W 074°02'1 1.2
2017-Nov-16 07:00N 40°40' W 074°01'3 6.3
2017-Nov-16 06:30N 40°43' W 073°59'5 8.5
2017-Nov-16 05:55N 40°47' W 073°56'3 7.3
2017-Nov-16 05:27N 40°48' W 073°51'1 0.2
2017-Nov-15 20:58N 40°48' W 073°49'4 7.4
2017-Nov-15 20:28N 40°48' W 073°54'3 7.0
2017-Nov-15 20:00N 40°46' W 073°57'3 6.8
2017-Nov-15 19:30N 40°42' W 073°59'3 5.9
2017-Nov-15 19:00N 40°40' W 074°01'1 2.0
2017-Nov-15 18:30N 40°39' W 074°02'1 1.1
2017-Nov-15 18:00N 40°40' W 074°01'4 7.3
2017-Nov-15 17:30N 40°43' W 073°59'5 9.7
2017-Nov-15 17:00N 40°47' W 073°55'4 8.0
2017-Nov-15 16:30N 40°48' W 073°50'1 0.1
2017-Nov-15 09:08N 40°48' W 073°49'1 7.9
2017-Nov-15 09:00N 40°48' W 073°51'3 6.6
2017-Nov-15 08:30N 40°48' W 073°55'4 7.6
2017-Nov-15 08:00N 40°45' W 073°58'3 6.4
2017-Nov-15 07:30N 40°42' W 074°00'3 5.5
2017-Nov-15 07:00N 40°39' W 074°02'0 0.5
2017-Nov-15 06:30N 40°39' W 074°02'0 0.1
2017-Nov-15 06:00N 40°39' W 074°02'1 2.9
2017-Nov-15 05:30N 40°38' W 074°03'3 6.5
2017-Nov-15 05:00N 40°35' W 074°02'1 2.1
2017-Nov-15 04:30N 40°34' W 074°00'3 5.2
2017-Nov-15 03:54N 40°34' W 073°56'2 5.9
2017-Nov-15 03:29N 40°34' W 073°53'1 0.3
2017-Nov-15 00:29N 40°35' W 073°52'6 5.8
2017-Nov-14 23:32N 40°34' W 073°59'0 7.1
2017-Nov-14 23:28N 40°34' W 073°60'3 6.4
2017-Nov-14 22:59N 40°32' W 074°03'8 1.8
2017-Nov-14 18:30N 40°36' W 074°12'4 7.0
2017-Nov-14 17:59N 40°39' W 074°09'4 8.4
2017-Nov-14 17:30N 40°40' W 074°04'0 0.0
2017-Nov-14 16:59N 40°40' W 074°04'0 0.0
2017-Nov-14 16:30N 40°40' W 074°04'0 0.0
2017-Nov-14 16:00N 40°40' W 074°04'0 0.0
2017-Nov-14 15:30N 40°40' W 074°04'0 0.0
2017-Nov-14 15:00N 40°40' W 074°04'0 0.0
2017-Nov-14 14:30N 40°40' W 074°04'0 0.0
2017-Nov-14 14:00N 40°40' W 074°04'0 0.0
2017-Nov-14 13:30N 40°40' W 074°04'0 0.0
2017-Nov-14 13:00N 40°40' W 074°04'2 4.9
2017-Nov-14 12:30N 40°41' W 074°01'0 0.7
2017-Nov-14 12:00N 40°41' W 074°01'3 5.3
2017-Nov-14 11:30N 40°43' W 073°58'1 2.0
2017-Nov-14 11:00N 40°44' W 073°58'0 0.0
2017-Nov-14 10:30N 40°44' W 073°58'0 0.0
2017-Nov-14 10:00N 40°44' W 073°58'0 0.2
2017-Nov-14 09:30N 40°44' W 073°58'4 8.1
2017-Nov-14 09:00N 40°41' W 074°01'2 4.5
2017-Nov-14 08:30N 40°40' W 074°04'0 0.0
2017-Nov-14 08:00N 40°40' W 074°04'0 0.0
2017-Nov-14 07:30N 40°40' W 074°04'0 0.0
2017-Nov-14 07:00N 40°40' W 074°04'0 0.0
2017-Nov-14 06:30N 40°40' W 074°04'0 0.0
2017-Nov-14 06:00N 40°40' W 074°04'0 0.0
2017-Nov-14 05:30N 40°40' W 074°04'2 3.6
2017-Nov-14 05:00N 40°39' W 074°06'4 6.8
2017-Nov-14 04:29N 40°39' W 074°11'3 5.7
2017-Nov-14 03:56N 40°36' W 074°12'8 1.9
2017-Nov-13 23:31N 40°31' W 074°03'0 6.7
2017-Nov-13 23:30N 40°32' W 074°03'3 6.0
2017-Nov-13 23:00N 40°34' W 074°01'3 6.3
2017-Nov-13 22:29N 40°34' W 073°56'  
Track history (hours):
 
Tides and Currents Weather Stations Pressure Air Temp Water Temp Dewpoint Dewpoint Depression Visibility Wind Speed Wind Dir Waves Ship Positions

Nathan G

Owner: New York State Marine Highway Transportation LLC, Troy, NY. More information available from US FCC via Universal Licensing System and Coast Guard Vessel Documentation Center.

Last reported at 2017-Nov-23 06:11 UTC. Time now 2017-Nov-23 11:16 UTC.
Position N 40°34' W 073°55'.

Length 18 m; draft 3 m.

MMSI: 367795910.

Date/timePositionNaut miles runAvg speedWind from/ knotsBaromVisibWave heightAir tempDewpointWater temp
2017-Nov-23 06:11N 40°34' W 073°55'6 1.5
2017-Nov-23 02:17N 40°36' W 074°02'2 7.6
2017-Nov-23 02:00N 40°38' W 074°02'1 1.9
2017-Nov-23 01:26N 40°39' W 074°04'2 4.8
2017-Nov-23 00:58N 40°39' W 074°07'0 0.0
2017-Nov-23 00:29N 40°39' W 074°07'0 0.0
2017-Nov-22 23:57N 40°39' W 074°07'1 2.3
2017-Nov-22 23:29N 40°39' W 074°05'4 7.2
2017-Nov-22 23:00N 40°40' W 074°01'0 0.0
2017-Nov-22 22:30N 40°40' W 074°01'0 0.0
2017-Nov-22 22:00N 40°40' W 074°01'0 0.0
2017-Nov-22 21:31N 40°40' W 074°01'0 0.0
2017-Nov-22 21:00N 40°40' W 074°01'2 3.8
2017-Nov-22 20:30N 40°42' W 074°01'1 2.1
2017-Nov-22 20:00N 40°41' W 074°02'2 3.8
2017-Nov-22 19:30N 40°39' W 074°02'  
2017-Nov-20 00:30N 40°36' W 074°02'2 4.8
2017-Nov-19 23:59N 40°34' W 073°60'3 4.4
2017-Nov-19 23:23N 40°34' W 073°56'2 4.3
2017-Nov-19 23:00N 40°34' W 073°54'3 4.5
2017-Nov-19 22:25N 40°35' W 073°51'7 0.5
2017-Nov-19 09:53N 40°34' W 073°59'2 6.3
2017-Nov-19 09:30N 40°35' W 074°02'4 7.2
2017-Nov-19 09:01N 40°39' W 074°02'0 1.0
2017-Nov-19 08:31N 40°40' W 074°02'1 2.2
2017-Nov-19 08:01N 40°41' W 074°01'4 7.3
2017-Nov-19 07:30N 40°43' W 073°58'5 8.7
2017-Nov-19 06:55N 40°48' W 073°55'4 8.2
2017-Nov-19 06:30N 40°48' W 073°50'1 0.1
2017-Nov-18 22:35N 40°48' W 073°49'4 6.4
2017-Nov-18 22:02N 40°48' W 073°54'0 6.8
2017-Nov-18 21:59N 40°48' W 073°54'3 7.2
2017-Nov-18 21:30N 40°46' W 073°57'3 6.4
2017-Nov-18 21:00N 40°43' W 073°59'3 5.6
2017-Nov-18 20:31N 40°41' W 074°01'1 2.6
2017-Nov-18 20:00N 40°39' W 074°02'0 0.1
2017-Nov-18 19:31N 40°39' W 074°02'0 0.0
2017-Nov-18 19:00N 40°39' W 074°02'0 0.2
2017-Nov-18 18:30N 40°39' W 074°02'0 0.5
2017-Nov-18 18:00N 40°39' W 074°02'0 0.0
2017-Nov-18 17:31N 40°39' W 074°02'0 0.0
2017-Nov-18 17:01N 40°39' W 074°02'0 0.1
2017-Nov-18 16:30N 40°40' W 074°02'0 0.1
2017-Nov-18 16:01N 40°40' W 074°02'0 0.0
2017-Nov-18 15:31N 40°40' W 074°02'0 0.0
2017-Nov-18 15:01N 40°40' W 074°02'0 0.0
2017-Nov-18 14:31N 40°40' W 074°02'0 0.0
2017-Nov-18 14:01N 40°40' W 074°02'0 0.0
2017-Nov-18 13:31N 40°40' W 074°02'0 0.0
2017-Nov-18 13:00N 40°40' W 074°02'0 0.0
2017-Nov-18 12:31N 40°40' W 074°02'0 0.0
2017-Nov-18 12:01N 40°40' W 074°02'0 0.0
2017-Nov-18 11:31N 40°40' W 074°02'0 0.0
2017-Nov-18 11:01N 40°40' W 074°02'0 0.0
2017-Nov-18 10:31N 40°40' W 074°02'0 0.0
2017-Nov-18 10:01N 40°40' W 074°02'0 0.1
2017-Nov-18 09:31N 40°40' W 074°02'0 0.1
2017-Nov-18 09:00N 40°39' W 074°02'0 0.1
2017-Nov-18 08:31N 40°39' W 074°02'0 0.0
2017-Nov-18 08:00N 40°39' W 074°02'0 0.0
2017-Nov-18 07:31N 40°39' W 074°02'0 0.0
2017-Nov-18 07:01N 40°39' W 074°02'0 0.2
2017-Nov-18 06:31N 40°39' W 074°02'2 4.8
2017-Nov-18 06:00N 40°37' W 074°03'3 6.4
2017-Nov-18 05:30N 40°34' W 074°01'4 8.0
2017-Nov-18 05:00N 40°34' W 073°55'4 0.7
2017-Nov-17 22:30N 40°35' W 073°50'0 0.0
2017-Nov-17 21:04N 40°35' W 073°50'0 0.1
2017-Nov-17 20:59N 40°35' W 073°50'0 0.0
2017-Nov-17 20:27N 40°35' W 073°50'0 0.0
2017-Nov-17 19:59N 40°35' W 073°50'0 0.0
2017-Nov-17 19:23N 40°35' W 073°50'0 0.0
2017-Nov-17 18:46N 40°35' W 073°50'0 0.0
2017-Nov-17 17:45N 40°35' W 073°50'0 0.0
2017-Nov-17 17:22N 40°35' W 073°50'0 0.0
2017-Nov-17 09:15N 40°35' W 073°50'4 1.9
2017-Nov-17 07:24N 40°34' W 073°54'2 3.1
2017-Nov-17 06:52N 40°34' W 073°56'2 5.5
2017-Nov-17 06:29N 40°34' W 073°59'3 5.9
2017-Nov-17 06:00N 40°36' W 074°02'3 6.2
2017-Nov-17 05:30N 40°39' W 074°02'3 5.7
2017-Nov-17 05:00N 40°41' W 074°00'4 7.4
2017-Nov-17 04:30N 40°45' W 073°58'4 8.6
2017-Nov-17 03:59N 40°48' W 073°54'4 7.3
2017-Nov-17 03:29N 40°48' W 073°49'0 0.0
2017-Nov-16 17:45N 40°48' W 073°50'2 8.1
2017-Nov-16 17:29N 40°48' W 073°52'3 5.5
2017-Nov-16 17:00N 40°47' W 073°56'2 4.3
2017-Nov-16 16:30N 40°45' W 073°58'3 5.6
2017-Nov-16 16:00N 40°43' W 073°59'3 6.1
2017-Nov-16 15:30N 40°40' W 074°02'3 6.1
2017-Nov-16 15:00N 40°37' W 074°03'4 7.0
2017-Nov-16 14:30N 40°34' W 074°01'0 0.0
2017-Nov-16 08:38N 40°34' W 074°00'1 6.4
2017-Nov-16 08:30N 40°35' W 074°01'4 8.5
2017-Nov-16 08:00N 40°39' W 074°02'1 1.8
2017-Nov-16 07:30N 40°40' W 074°02'1 1.2
2017-Nov-16 07:00N 40°40' W 074°01'3 6.3
2017-Nov-16 06:30N 40°43' W 073°59'5 8.5
2017-Nov-16 05:55N 40°47' W 073°56'3 7.3
2017-Nov-16 05:27N 40°48' W 073°51'1 0.2
2017-Nov-15 20:58N 40°48' W 073°49'4 7.4
2017-Nov-15 20:28N 40°48' W 073°54'3 7.0
2017-Nov-15 20:00N 40°46' W 073°57'3 6.8
2017-Nov-15 19:30N 40°42' W 073°59'3 5.9
2017-Nov-15 19:00N 40°40' W 074°01'1 2.0
2017-Nov-15 18:30N 40°39' W 074°02'1 1.1
2017-Nov-15 18:00N 40°40' W 074°01'4 7.3
2017-Nov-15 17:30N 40°43' W 073°59'5 9.7
2017-Nov-15 17:00N 40°47' W 073°55'4 8.0
2017-Nov-15 16:30N 40°48' W 073°50'1 0.1
2017-Nov-15 09:08N 40°48' W 073°49'1 7.9
2017-Nov-15 09:00N 40°48' W 073°51'3 6.6
2017-Nov-15 08:30N 40°48' W 073°55'4 7.6
2017-Nov-15 08:00N 40°45' W 073°58'3 6.4
2017-Nov-15 07:30N 40°42' W 074°00'3 5.5
2017-Nov-15 07:00N 40°39' W 074°02'0 0.5
2017-Nov-15 06:30N 40°39' W 074°02'0 0.1
2017-Nov-15 06:00N 40°39' W 074°02'1 2.9
2017-Nov-15 05:30N 40°38' W 074°03'3 6.5
2017-Nov-15 05:00N 40°35' W 074°02'1 2.1
2017-Nov-15 04:30N 40°34' W 074°00'3 5.2
2017-Nov-15 03:54N 40°34' W 073°56'2 5.9
2017-Nov-15 03:29N 40°34' W 073°53'1 0.3
2017-Nov-15 00:29N 40°35' W 073°52'6 5.8
2017-Nov-14 23:32N 40°34' W 073°59'0 7.1
2017-Nov-14 23:28N 40°34' W 073°60'3 6.4
2017-Nov-14 22:59N 40°32' W 074°03'8 1.8
2017-Nov-14 18:30N 40°36' W 074°12'4 7.0
2017-Nov-14 17:59N 40°39' W 074°09'4 8.4
2017-Nov-14 17:30N 40°40' W 074°04'0 0.0
2017-Nov-14 16:59N 40°40' W 074°04'0 0.0
2017-Nov-14 16:30N 40°40' W 074°04'0 0.0
2017-Nov-14 16:00N 40°40' W 074°04'0 0.0
2017-Nov-14 15:30N 40°40' W 074°04'0 0.0
2017-Nov-14 15:00N 40°40' W 074°04'0 0.0
2017-Nov-14 14:30N 40°40' W 074°04'0 0.0
2017-Nov-14 14:00N 40°40' W 074°04'0 0.0
2017-Nov-14 13:30N 40°40' W 074°04'0 0.0
2017-Nov-14 13:00N 40°40' W 074°04'2 4.9
2017-Nov-14 12:30N 40°41' W 074°01'0 0.7
2017-Nov-14 12:00N 40°41' W 074°01'3 5.3
2017-Nov-14 11:30N 40°43' W 073°58'1 2.0
2017-Nov-14 11:00N 40°44' W 073°58'0 0.0
2017-Nov-14 10:30N 40°44' W 073°58'0 0.0
2017-Nov-14 10:00N 40°44' W 073°58'0 0.2
2017-Nov-14 09:30N 40°44' W 073°58'4 8.1
2017-Nov-14 09:00N 40°41' W 074°01'2 4.5
2017-Nov-14 08:30N 40°40' W 074°04'0 0.0
2017-Nov-14 08:00N 40°40' W 074°04'0 0.0
2017-Nov-14 07:30N 40°40' W 074°04'0 0.0
2017-Nov-14 07:00N 40°40' W 074°04'0 0.0
2017-Nov-14 06:30N 40°40' W 074°04'0 0.0
2017-Nov-14 06:00N 40°40' W 074°04'0 0.0
2017-Nov-14 05:30N 40°40' W 074°04'2 3.6
2017-Nov-14 05:00N 40°39' W 074°06'4 6.8
2017-Nov-14 04:29N 40°39' W 074°11'3 5.7
2017-Nov-14 03:56N 40°36' W 074°12'8 1.9
2017-Nov-13 23:31N 40°31' W 074°03'0 6.7
2017-Nov-13 23:30N 40°32' W 074°03'3 6.0
2017-Nov-13 23:00N 40°34' W 074°01'3 6.3
2017-Nov-13 22:29N 40°34' W 073°56'  

Dump ship's entire track history